Latest Weather Observations for Bathurst Airport

IDN60801

Issued at 6:32 pm EDT Monday 23 October 2017 (issued every 30 minutes, with the page automatically refreshed every 10 minutes)

About weather observations | Map of weather stations | Latest weather observations for NSW | Other Formats
Station Details ID: 063291 Name: BATHURST AIRPORT AWS Lat: -33.41 Lon: 149.65 Height: 744.5 m
Data from the previous 72 hours. | See also: Recent months at Bathurst Airport
Date/Time
EDT
Temp
°C
App
Temp
°C
Dew
Point
°C
Rel
Hum
%
Delta-T
°C
Wind Press
QNH
hPa
Press
MSL
hPa
Rain since
9am
mm
Dir  Spd
km/h
Gust
km/h
Spd
kts
Gust
kts
23/06:30pm 19.7 16.9 3.0 33 8.1 WSW 7 11 4 6 1017.2 1015.9 0.0
23/06:00pm 19.8 17.1 3.9 35 7.9 SSW 7 13 4 7 1017.1 1015.8 0.0
23/05:30pm 20.3 17.5 5.1 37 7.7 SSW 9 13 5 7 1017.1 1015.8 0.0
23/05:00pm 19.4 16.9 4.0 36 7.6 S 6 9 3 5 1017.0 1015.7 0.0
23/04:30pm 19.8 17.3 3.9 35 7.9 SW 6 13 3 7 1017.0 1015.7 0.0
23/04:00pm 19.7 17.0 5.7 40 7.2 S 9 15 5 8 1017.1 1015.8 0.0
23/03:30pm 18.8 15.1 4.2 38 7.2 SSE 13 19 7 10 1017.2 1015.9 0.0
23/03:00pm 19.8 17.4 5.1 38 7.4 SW 7 13 4 7 1017.3 1016.0 0.0
23/02:30pm 18.7 15.6 5.5 42 6.7 SSE 11 15 6 8 1017.6 1016.2 0.0
23/02:00pm 19.3 17.2 6.8 44 6.5 WNW 7 13 4 7 1017.8 1016.4 0.0
23/01:30pm 19.0 17.0 6.2 43 6.6 NNW 6 15 3 8 1017.8 1016.4 0.0
23/01:00pm 18.2 16.0 6.4 46 6.1 WSW 7 11 4 6 1018.1 1016.8 0.0
23/12:30pm 17.3 15.2 6.5 49 5.5 WNW 7 11 4 6 1018.3 1017.0 0.0
23/12:00pm 17.4 15.5 7.7 53 5.1 NNE 7 11 4 6 1018.6 1017.3 0.0
23/11:30am 16.3 14.5 7.3 55 4.7 NE 6 15 3 8 1018.9 1017.5 0.0
23/11:00am 15.1 13.1 6.9 58 4.2 S 7 15 4 8 1019.1 1017.8 0.0
23/10:30am 15.4 13.0 7.2 58 4.2 E 9 19 5 10 1019.1 1017.8 0.0
23/10:00am 15.0 11.9 7.1 59 4.0 E 13 17 7 9 1019.0 1017.6 0.0
23/09:30am 14.4 10.5 7.0 61 3.8 ENE 17 20 9 11 1018.7 1017.4 0.0
23/09:00am 12.8 10.8 7.3 69 2.8 WSW 7 13 4 7 1018.3 1017.0 0.0
23/08:30am 11.3 9.3 7.0 75 2.1 SSW 7 11 4 6 1018.1 1016.8 0.0
23/08:00am 10.4 7.8 6.2 75 2.0 S 9 11 5 6 1017.7 1016.3 0.0
23/07:30am 9.7 7.3 7.1 84 1.3 SE 9 13 5 7 1017.3 1016.0 0.0
23/07:00am 8.0 6.1 6.9 93 0.5 S 6 9 3 5 1017.1 1015.8 0.0
23/06:30am 7.8 5.8 6.3 90 0.7 SSE 6 11 3 6 1017.0 1015.7 0.0
23/06:00am 7.9 5.8 5.9 87 0.9 E 6 9 3 5 1016.7 1015.4 0.0
23/05:30am 7.6 4.7 6.4 92 0.6 SE 11 15 6 8 1016.3 1014.9 0.0
23/05:00am 7.9 4.9 6.0 88 0.9 SSE 11 13 6 7 1015.9 1014.6 0.0
23/04:30am 7.8 5.2 6.1 89 0.8 SSE 9 13 5 7 1015.7 1014.4 0.0
23/04:00am 8.5 6.5 6.1 85 1.1 SE 6 11 3 6 1015.8 1014.5 0.0
23/03:30am 8.3 6.7 6.4 88 0.9 SE 4 7 2 4 1015.7 1014.4 0.0
23/03:00am 9.3 6.8 6.7 84 1.3 SSE 9 11 5 6 1015.9 1014.6 0.0
23/02:30am 8.7 6.1 6.2 84 1.2 ESE 9 13 5 7 1015.9 1014.6 0.0
23/02:00am 9.8 6.5 6.5 80 1.6 SE 13 17 7 9 1016.2 1014.8 0.0
23/01:30am 10.1 6.5 6.8 80 1.6 SSE 15 20 8 11 1016.2 1014.8 0.0
23/01:00am 10.1 7.2 6.6 79 1.7 SE 11 17 6 9 1016.3 1014.9 0.0
23/12:30am 10.5 7.1 5.9 73 2.2 SE 13 15 7 8 1016.5 1015.1 0.0
23/12:00am 11.1 8.4 8.8 86 1.2 SE 13 17 7 9 1016.5 1015.1 0.0
 
Date/Time
EDT
Temp
°C
App
Temp
°C
Dew
Point
°C
Rel
Hum
%
Delta-T
°C
Wind Press
QNH
hPa
Press
MSL
hPa
Rain since
9am
mm
Dir  Spd
km/h
Gust
km/h
Spd
kts
Gust
kts
22/11:30pm 11.5 8.4 7.2 75 2.2 SSE 13 17 7 9 1016.3 1014.9 0.0
22/11:00pm 11.6 8.6 7.7 77 2.0 SSE 13 17 7 9 1016.2 1014.8 0.0
22/10:30pm 11.9 8.0 9.5 85 1.3 S 20 28 11 15 1016.1 1014.7 0.0
22/10:00pm 11.6 10.4 7.9 78 1.9 E 4 7 2 4 1015.7 1014.4 0.0
22/09:30pm 11.8 9.2 7.9 77 2.0 SE 11 13 6 7 1015.5 1014.2 0.0
22/09:00pm 12.8 9.8 5.9 63 3.4 SSE 11 15 6 8 1015.1 1013.7 0.0
22/08:30pm 13.0 9.5 3.7 53 4.4 SSE 11 13 6 7 1014.8 1013.4 0.0
22/08:00pm 12.5 9.4 3.7 55 4.1 WSW 9 13 5 7 1014.3 1012.9 0.0
22/07:30pm 13.2 9.3 3.6 52 4.5 SW 13 15 7 8 1013.9 1012.5 0.0
22/07:00pm 15.5 10.8 3.0 43 5.9 SW 17 22 9 12 1013.6 1012.2 0.0
22/06:30pm 16.5 11.1 2.5 39 6.6 WSW 20 26 11 14 1013.2 1011.7 0.0
22/06:00pm 17.3 12.0 3.2 39 6.8 WSW 20 26 11 14 1012.9 1011.5 0.0
22/05:30pm 17.9 12.6 1.8 34 7.6 WSW 19 26 10 14 1012.8 1011.4 0.0
22/05:00pm 18.1 12.9 2.4 35 7.5 SW 19 24 10 13 1012.5 1011.1 0.0
22/04:30pm 18.6 13.8 2.4 34 7.7 WSW 17 26 9 14 1012.4 1011.0 0.0
22/04:00pm 18.9 15.0 3.5 36 7.5 W 13 26 7 14 1012.4 1011.0 0.0
22/03:30pm 17.9 13.6 3.4 38 7.0 SW 15 26 8 14 1012.6 1011.2 0.0
22/03:00pm 17.1 12.3 4.8 44 6.1 SW 19 26 10 14 1013.2 1011.7 0.0
22/02:30pm 17.3 12.4 4.3 42 6.4 WSW 19 28 10 15 1013.3 1011.9 0.0
22/02:00pm 17.3 13.1 3.6 40 6.6 WNW 15 24 8 13 1013.5 1012.1 0.0
22/01:30pm 17.5 13.2 3.4 39 6.8 W 15 22 8 12 1013.7 1012.3 0.0
22/01:00pm 18.3 14.0 3.0 36 7.4 W 15 28 8 15 1013.8 1012.4 0.0
22/12:30pm 17.7 14.2 5.3 44 6.2 W 13 20 7 11 1014.1 1012.7 0.0
22/12:00pm 18.2 15.0 6.7 47 6.0 W 13 19 7 10 1014.4 1013.1 0.0
22/11:30am 16.0 13.1 6.7 54 4.7 NW 11 20 6 11 1014.7 1013.3 0.0
22/11:00am 15.9 14.0 8.9 63 3.7 NW 9 19 5 10 1015.1 1013.7 0.0
22/10:30am 14.4 12.1 9.0 70 2.9 WSW 11 13 6 7 1015.5 1014.2 0.0
22/10:00am 14.4 12.4 8.8 69 3.0 NNW 9 15 5 8 1015.6 1014.3 0.0
22/09:30am 12.9 10.1 8.6 75 2.2 NNW 13 20 7 11 1015.7 1014.4 0.0
22/09:00am 11.6 9.5 8.3 80 1.7 N 9 15 5 8 1015.8 1014.5 0.0
22/08:30am 10.4 8.5 7.6 83 1.4 NNE 7 11 4 6 1015.8 1014.5 0.0
22/08:00am 9.6 8.5 7.0 84 1.3 ENE 2 7 1 4 1015.7 1014.4 0.0
22/07:30am 8.7 6.9 7.2 90 0.7 SE 6 7 3 4 1015.6 1014.3 0.0
22/07:00am 6.9 5.0 6.8 99 0.0 SSE 6 7 3 4 1015.5 1014.2 0.0
22/06:30am 6.5 4.5 6.4 99 0.0 SSE 6 7 3 4 1015.4 1014.0 0.0
22/06:00am 6.4 4.2 6.3 99 0.0 ESE 7 9 4 5 1015.1 1013.7 0.0
22/05:30am 6.8 4.9 6.7 99 0.0 ENE 6 7 3 4 1015.2 1013.8 0.0
22/05:00am 6.5 4.9 6.4 99 0.0 ENE 4 7 2 4 1015.1 1013.7 0.0
22/04:30am 6.1 3.9 6.0 99 0.0 ENE 7 9 4 5 1015.2 1013.8 0.0
22/04:00am 6.5 4.3 6.2 98 0.1 E 7 9 4 5 1015.3 1013.9 0.0
22/03:30am 6.6 4.5 6.5 99 0.0 ENE 7 9 4 5 1015.5 1014.2 0.0
22/03:00am 7.4 5.3 6.7 95 0.3 ENE 7 9 4 5 1015.8 1014.5 0.0
22/02:30am 7.3 6.7 7.2 99 0.0 CALM 0 0 0 0 1015.9 1014.6 0.0
22/02:00am 7.8 7.0 6.6 92 0.6 CALM 0 0 0 0 1016.3 1014.9 0.0
22/01:30am 8.5 6.6 6.6 88 0.9 E 6 7 3 4 1016.6 1015.2 0.0
22/01:00am 8.7 7.9 6.5 86 1.1 CALM 0 0 0 0 1016.8 1015.5 0.0
22/12:30am 9.0 6.8 6.3 83 1.3 NNE 7 9 4 5 1017.1 1015.8 0.0
22/12:00am 9.3 7.9 5.7 78 1.7 ENE 2 6 1 3 1017.3 1016.0 0.0
 
Date/Time
EDT
Temp
°C
App
Temp
°C
Dew
Point
°C
Rel
Hum
%
Delta-T
°C
Wind Press
QNH
hPa
Press
MSL
hPa
Rain since
9am
mm
Dir  Spd
km/h
Gust
km/h
Spd
kts
Gust
kts
21/11:30pm 9.8 7.6 5.4 74 2.1 ENE 6 7 3 4 1017.5 1016.1 0.0
21/11:00pm 10.2 7.1 5.6 73 2.2 NE 11 13 6 7 1017.6 1016.2 0.0
21/10:30pm 9.6 7.0 6.0 78 1.7 NE 9 13 5 7 1017.6 1016.2 0.0
21/10:00pm 11.2 9.9 6.1 71 2.5 NNE 2 7 1 4 1017.7 1016.3 0.0
21/09:30pm 11.8 9.0 6.9 72 2.4 N 11 15 6 8 1017.7 1016.3 0.0
21/09:00pm 12.2 10.2 6.9 70 2.6 W 7 11 4 6 1017.7 1016.3 0.0
21/08:30pm 13.5 11.1 7.1 65 3.2 W 9 13 5 7 1017.5 1016.1 0.0
21/08:00pm 14.0 12.3 8.2 68 3.0 NW 7 7 4 4 1017.3 1016.0 0.0
21/07:30pm 15.1 14.2 6.1 55 4.5 CALM 0 0 0 0 1017.1 1015.8 0.0
21/07:00pm 16.3 15.6 7.0 54 4.8 CALM 0 0 0 0 1017.0 1015.7 0.0
21/06:30pm 16.9 15.1 5.2 46 5.8 NNE 4 9 2 5 1016.9 1015.6 0.0
21/06:00pm 17.4 14.5 4.4 42 6.4 NE 9 11 5 6 1017.0 1015.7 0.0
21/05:30pm 17.5 15.0 4.5 42 6.4 NE 7 11 4 6 1017.2 1015.9 0.0
21/05:00pm 17.9 15.1 5.2 43 6.4 SW 9 11 5 6 1017.5 1016.1 0.0
21/04:30pm 17.7 14.8 4.6 42 6.5 S 9 19 5 10 1017.7 1016.3 0.0
21/04:00pm 17.3 12.5 4.6 43 6.3 SSW 19 26 10 14 1018.0 1016.7 0.0
21/03:30pm 17.1 14.0 3.8 41 6.5 S 9 15 5 8 1018.3 1017.0 0.0
21/03:00pm 16.9 13.6 4.3 43 6.2 SSW 11 20 6 11 1018.7 1017.4 0.0
21/02:30pm 16.1 12.7 3.9 44 5.9 SSE 11 24 6 13 1019.1 1017.8 0.0
21/02:00pm 16.2 13.7 3.9 44 5.9 SSE 6 15 3 8 1019.7 1018.4 0.0
21/01:30pm 15.6 12.2 6.1 53 4.8 SSE 13 20 7 11 1020.1 1018.8 0.0
21/01:00pm 14.7 12.2 8.0 64 3.5 SE 11 15 6 8 1020.5 1019.2 0.0
21/12:30pm 14.2 10.1 6.3 59 4.0 SSE 17 30 9 16 1020.8 1019.5 0.0
21/12:00pm 13.5 10.2 6.4 62 3.5 S 13 17 7 9 1021.2 1019.9 0.0
21/11:30am 12.9 9.9 6.0 63 3.4 SE 11 20 6 11 1021.5 1020.3 0.0
21/11:00am 12.6 8.8 6.0 64 3.2 ESE 15 22 8 12 1021.5 1020.3 0.0
21/10:30am 12.3 8.4 7.0 70 2.7 SSE 17 24 9 13 1021.6 1020.4 0.0
21/10:00am 12.0 8.3 6.3 68 2.8 SSE 15 20 8 11 1021.8 1020.5 0.0
21/09:30am 11.5 7.3 5.8 68 2.8 SE 17 22 9 12 1021.6 1020.4 0.0
21/09:00am 11.4 9.6 7.1 75 2.1 N 6 9 3 5 1021.5 1020.3 14.2
21/08:30am 11.0 8.5 6.7 75 2.1 ENE 9 15 5 8 1021.5 1020.3 14.2
21/08:00am 10.6 9.3 6.2 74 2.1 S 2 7 1 4 1021.6 1020.4 14.2
21/07:30am 9.3 7.2 6.7 84 1.3 S 7 11 4 6 1021.6 1020.4 14.2
21/07:00am 8.4 6.5 6.9 90 0.7 SSE 6 7 3 4 1021.4 1020.2 14.2
21/06:30am 7.5 5.6 6.9 96 0.3 SE 6 9 3 5 1021.5 1020.3 14.2
21/06:00am 7.8 5.4 6.9 94 0.4 ESE 9 13 5 7 1021.5 1020.3 14.2
21/05:30am 8.4 4.5 6.9 90 0.7 SE 17 24 9 13 1021.3 1020.0 14.2
21/05:00am 8.5 5.3 7.0 90 0.7 SE 13 19 7 10 1021.6 1020.4 14.2
21/04:30am 8.7 5.5 6.7 87 1.0 SE 13 20 7 11 1021.6 1020.4 14.2
21/04:00am 8.9 4.8 6.2 83 1.3 SE 17 26 9 14 1021.9 1020.6 14.2
21/03:30am 9.0 4.4 6.4 84 1.3 SE 20 30 11 16 1022.1 1020.8 14.2
21/03:17am 9.1 4.5 6.7 85 1.2 SE 20 33 11 18 1022.2 1020.9 14.2
21/03:00am 9.2 4.9 7.0 86 1.1 SE 19 28 10 15 1022.4 1021.1 14.2
21/02:30am 9.5 5.3 7.3 86 1.1 ESE 19 24 10 13 1022.6 1021.4 14.2
21/02:17am 9.5 4.7 7.3 86 1.1 ESE 22 32 12 17 1022.6 1021.4 14.2
21/02:00am 9.7 5.3 7.6 87 1.0 ESE 20 26 11 14 1022.6 1021.4 14.2
21/01:56am 9.8 5.5 7.7 87 1.0 ESE 20 28 11 15 1022.6 1021.4 14.2
21/01:30am 10.0 6.3 8.1 88 1.0 SE 17 24 9 13 1022.9 1021.7 14.2
21/01:10am 10.0 7.0 7.9 87 1.1 ESE 13 20 7 11 1022.8 1021.6 14.2
21/01:00am 10.0 6.3 8.1 88 1.0 ESE 17 26 9 14 1022.9 1021.7 14.2
21/12:30am 10.3 6.1 8.4 88 1.0 ESE 20 28 11 15 1023.3 1022.0 14.2
21/12:00am 10.8 7.6 8.4 85 1.2 ESE 15 28 8 15 1023.3 1022.0 14.2
 
Date/Time
EDT
Temp
°C
App
Temp
°C
Dew
Point
°C
Rel
Hum
%
Delta-T
°C
Wind Press
QNH
hPa
Press
MSL
hPa
Rain since
9am
mm
Dir  Spd
km/h
Gust
km/h
Spd
kts
Gust
kts
20/11:30pm 11.2 9.0 9.3 88 1.0 E 11 15 6 8 1023.5 1022.2 14.2
20/11:00pm 11.4 9.9 8.4 82 1.5 E 6 11 3 6 1023.5 1022.2 14.2
20/10:30pm 11.6 9.4 9.2 85 1.3 SE 11 17 6 9 1023.4 1022.1 14.2
20/10:00pm 12.0 10.2 9.4 84 1.4 ESE 9 15 5 8 1023.3 1022.0 14.2
20/09:30pm 12.2 10.9 9.9 86 1.2 ESE 7 15 4 8 1023.0 1021.8 14.2
20/09:05pm 12.1 10.6 10.5 90 0.9 E 9 15 5 8 1022.9 1021.7 14.2
20/09:00pm 12.0 10.0 10.2 89 1.0 E 11 15 6 8 1022.8 1021.6 14.2
20/08:30pm 12.2 10.4 10.8 91 0.8 ESE 11 17 6 9 1022.6 1021.4 14.2
20/08:00pm 12.3 9.9 11.5 95 0.4 ENE 15 20 8 11 1022.1 1020.8 14.2
20/07:36pm 12.8 11.4 12.2 96 0.3 ESE 11 19 6 10 1021.6 1020.4 14.0
20/07:34pm 12.8 11.4 12.2 96 0.3 E 11 19 6 10 1021.6 1020.4 14.0
20/07:30pm 12.7 10.8 11.9 95 0.4 ENE 13 19 7 10 1021.5 1020.3 13.8
20/07:21pm 13.0 11.9 11.9 93 0.6 E 9 13 5 7 1021.3 1020.0 13.4
20/07:15pm 13.1 11.5 11.5 90 0.9 ENE 11 17 6 9 1021.3 1020.0 13.2
20/07:00pm 13.3 10.6 11.7 90 0.9 E 17 24 9 13 1020.8 1019.5 13.2

Other Formats:

Comma delimited format used in spreadsheet applications
http://www.bom.gov.au/fwo/IDN60801/IDN60801.94729.axf

JavaScript Object Notation format (JSON) in row-major order
http://www.bom.gov.au/fwo/IDN60801/IDN60801.94729.json